createdAt,value
2019-03-17T00:00:44.857Z,930.16
2019-03-17T00:01:57.556Z,930.17
2019-03-17T00:02:56.776Z,930.18
2019-03-17T00:03:56.970Z,930.1
2019-03-17T00:04:57.451Z,930.06
2019-03-17T00:05:58.203Z,930.07
2019-03-17T00:06:59.236Z,930.09
2019-03-17T00:07:59.516Z,930.04
2019-03-17T00:08:59.755Z,930.04
2019-03-17T00:10:00.641Z,930.07
2019-03-17T00:11:01.668Z,930.01
2019-03-17T00:12:02.767Z,930.03
2019-03-17T00:13:03.703Z,930.02
2019-03-17T00:14:04.504Z,930.03
2019-03-17T00:15:07.065Z,929.99
2019-03-17T00:16:07.823Z,929.98
2019-03-17T00:17:08.573Z,929.97
2019-03-17T00:18:09.322Z,929.92
2019-03-17T00:19:10.082Z,929.96
2019-03-17T00:20:11.133Z,929.92
2019-03-17T00:21:11.880Z,930.06
2019-03-17T00:22:12.353Z,930.05
2019-03-17T00:23:12.590Z,929.96
2019-03-17T00:24:13.064Z,929.94
2019-03-17T00:25:13.264Z,929.99
2019-03-17T00:26:14.014Z,929.99
2019-03-17T00:27:14.491Z,930
2019-03-17T00:28:15.239Z,930.04
2019-03-17T00:29:15.713Z,930
2019-03-17T00:30:17.020Z,929.99
2019-03-17T00:31:24.520Z,929.99
2019-03-17T00:31:27.381Z,930
2019-03-17T00:32:28.659Z,930.02
2019-03-17T00:33:29.155Z,930.05
2019-03-17T00:34:30.182Z,930.01
2019-03-17T00:34:44.248Z,929.96
2019-03-17T00:35:41.114Z,929.99
2019-03-17T00:36:42.154Z,929.99
2019-03-17T00:37:42.529Z,929.99
2019-03-17T00:38:42.840Z,930.03
2019-03-17T00:39:43.312Z,929.96
2019-03-17T00:40:44.244Z,929.97
2019-03-17T00:41:45.286Z,929.93
2019-03-17T00:42:45.827Z,929.93
2019-03-17T00:43:46.589Z,929.92
2019-03-17T00:44:47.387Z,929.9
2019-03-17T00:45:48.308Z,929.89
2019-03-17T00:46:48.780Z,929.87
2019-03-17T00:47:49.568Z,929.92
2019-03-17T00:48:50.591Z,929.91
2019-03-17T00:49:51.069Z,929.87
2019-03-17T00:50:51.588Z,929.85
2019-03-17T00:51:52.061Z,929.87
2019-03-17T00:52:52.585Z,929.88
2019-03-17T00:53:53.107Z,929.86
2019-03-17T00:54:53.579Z,929.88
2019-03-17T00:55:54.044Z,929.82
2019-03-17T00:56:55.122Z,929.82
2019-03-17T00:57:55.600Z,929.8
2019-03-17T00:58:56.382Z,929.75
2019-03-17T00:59:56.909Z,929.78
2019-03-17T01:00:57.938Z,929.78
2019-03-17T01:01:58.131Z,929.75
2019-03-17T01:02:58.887Z,929.71
2019-03-17T01:03:59.929Z,929.68
2019-03-17T01:05:00.688Z,929.66
2019-03-17T01:06:01.215Z,929.73
2019-03-17T01:07:02.059Z,929.72
2019-03-17T01:08:02.528Z,929.66
2019-03-17T01:09:03.283Z,929.63
2019-03-17T01:10:03.767Z,929.58
2019-03-17T01:11:04.524Z,929.58
2019-03-17T01:12:04.720Z,929.57
2019-03-17T01:13:05.474Z,929.56
2019-03-17T01:14:06.776Z,929.56
2019-03-17T01:15:07.598Z,929.57
2019-03-17T01:16:07.821Z,929.55
2019-03-17T01:17:08.598Z,929.54
2019-03-17T01:18:09.077Z,929.52
2019-03-17T01:19:09.545Z,929.57
2019-03-17T01:20:10.302Z,929.53
2019-03-17T01:21:11.049Z,929.51
2019-03-17T01:22:11.589Z,929.46
2019-03-17T01:23:12.616Z,929.46
2019-03-17T01:24:12.992Z,929.48
2019-03-17T01:25:13.745Z,929.49
2019-03-17T01:26:14.666Z,929.45
2019-03-17T01:27:15.148Z,929.39
2019-03-17T01:28:15.902Z,929.37
2019-03-17T01:29:16.934Z,929.38
2019-03-17T01:30:17.678Z,929.41
2019-03-17T01:31:18.166Z,929.42
2019-03-17T01:32:19.026Z,929.37
2019-03-17T01:33:20.062Z,929.32
2019-03-17T01:34:20.651Z,929.32
2019-03-17T01:35:21.711Z,929.36
2019-03-17T01:36:21.910Z,929.32
2019-03-17T01:37:22.380Z,929.33
2019-03-17T01:38:22.586Z,929.28
2019-03-17T01:39:23.060Z,929.29
2019-03-17T01:40:24.085Z,929.28
2019-03-17T01:41:24.833Z,929.28
2019-03-17T01:42:25.607Z,929.27
2019-03-17T01:43:26.415Z,929.31
2019-03-17T01:44:27.164Z,929.26
2019-03-17T01:45:28.187Z,929.23
2019-03-17T01:46:28.867Z,929.25
2019-03-17T01:47:29.612Z,929.2
2019-03-17T01:48:29.818Z,929.21
2019-03-17T01:49:30.298Z,929.15
2019-03-17T01:50:30.766Z,929.19
2019-03-17T01:51:30.962Z,929.17
2019-03-17T01:52:31.434Z,929.15
2019-03-17T01:53:31.902Z,929.09
2019-03-17T01:54:32.934Z,929.09
2019-03-17T01:55:33.235Z,929.08
2019-03-17T01:56:33.684Z,929.06
2019-03-17T01:57:34.431Z,929.07
2019-03-17T01:58:35.462Z,929.08
2019-03-17T01:59:35.937Z,929.03
2019-03-17T02:00:36.686Z,929.04
2019-03-17T02:01:37.440Z,929.04
2019-03-17T02:02:37.909Z,929.05
2019-03-17T02:03:38.104Z,929.04
2019-03-17T02:04:39.127Z,929.01
2019-03-17T02:05:39.603Z,929.01
2019-03-17T02:06:40.238Z,929.04
2019-03-17T02:07:41.267Z,928.99
2019-03-17T02:08:41.512Z,928.99
2019-03-17T02:09:41.745Z,928.97
2019-03-17T02:10:41.959Z,928.94
2019-03-17T02:11:42.698Z,928.92
2019-03-17T02:12:43.750Z,928.92
2019-03-17T02:13:44.780Z,929.01
2019-03-17T02:14:45.530Z,928.96
2019-03-17T02:15:46.072Z,928.94
2019-03-17T02:16:46.263Z,928.98
2019-03-17T02:17:47.015Z,928.97
2019-03-17T02:18:47.799Z,928.91
2019-03-17T02:19:47.994Z,928.93
2019-03-17T02:20:48.752Z,928.92
2019-03-17T02:21:49.337Z,928.99
2019-03-17T02:22:50.364Z,929.01
2019-03-17T02:23:51.111Z,929.02
2019-03-17T02:24:52.147Z,928.97
2019-03-17T02:25:52.616Z,929.07
2019-03-17T02:26:53.850Z,929.02
2019-03-17T02:27:54.045Z,929.05
2019-03-17T02:28:55.156Z,929.06
2019-03-17T02:29:55.907Z,929.04
2019-03-17T02:30:56.380Z,929.04
2019-03-17T02:31:57.442Z,929.12
2019-03-17T02:32:58.148Z,929.09
2019-03-17T02:33:59.219Z,929.09
2019-03-17T02:35:00.491Z,929.07
2019-03-17T02:36:00.770Z,929.12
2019-03-17T02:37:01.448Z,929.17
2019-03-17T02:38:02.077Z,929.12
2019-03-17T02:39:02.523Z,929.11
2019-03-17T02:40:03.161Z,929.2
2019-03-17T02:41:04.059Z,929.22
2019-03-17T02:42:04.388Z,929.17
2019-03-17T02:43:05.447Z,929.16
2019-03-17T02:44:06.542Z,929.09
2019-03-17T02:45:06.870Z,929.09
2019-03-17T02:46:07.937Z,929.09
2019-03-17T02:47:08.891Z,929.06
2019-03-17T02:48:09.484Z,929.13
2019-03-17T02:49:09.862Z,929.08
2019-03-17T02:50:10.906Z,929.07
2019-03-17T02:51:11.791Z,929.13
2019-03-17T02:52:12.112Z,929.11
2019-03-17T02:53:13.166Z,929.14
2019-03-17T02:54:13.766Z,929.05
2019-03-17T02:55:14.655Z,929.04
2019-03-17T02:56:14.857Z,929.08
2019-03-17T02:57:15.798Z,929.05
2019-03-17T02:58:17.134Z,929
2019-03-17T02:59:17.463Z,929.01
2019-03-17T03:00:19.326Z,928.98
2019-03-17T03:01:20.380Z,929
2019-03-17T03:02:21.140Z,928.95
2019-03-17T03:03:22.005Z,928.94
2019-03-17T03:04:22.606Z,928.95
2019-03-17T03:05:22.955Z,928.91
2019-03-17T03:06:23.604Z,928.9
2019-03-17T03:07:25.015Z,928.89
2019-03-17T03:08:25.516Z,928.86
2019-03-17T03:09:25.854Z,928.88
2019-03-17T03:10:26.460Z,928.91
2019-03-17T03:10:36.222Z,928.9
2019-03-17T03:11:36.795Z,928.88
2019-03-17T03:12:37.586Z,928.88
2019-03-17T03:13:38.284Z,928.88
2019-03-17T03:14:39.323Z,928.86
2019-03-17T03:15:39.629Z,928.89
2019-03-17T03:16:40.072Z,928.89
2019-03-17T03:17:41.136Z,928.89
2019-03-17T03:18:41.752Z,928.87
2019-03-17T03:19:42.500Z,928.86
2019-03-17T03:20:43.120Z,928.84
2019-03-17T03:21:44.055Z,928.79
2019-03-17T03:22:45.084Z,928.81
2019-03-17T03:23:46.419Z,928.85
2019-03-17T03:24:47.281Z,928.73
2019-03-17T03:25:48.590Z,928.75
2019-03-17T03:26:49.629Z,928.74
2019-03-17T03:27:50.748Z,928.75
2019-03-17T03:28:51.874Z,928.78
2019-03-17T03:29:52.520Z,928.73
2019-03-17T03:30:53.134Z,928.73
2019-03-17T03:31:53.691Z,928.68
2019-03-17T03:32:54.520Z,928.68
2019-03-17T03:33:55.675Z,928.7
2019-03-17T03:34:56.128Z,928.68
2019-03-17T03:36:11.159Z,928.7
2019-03-17T03:36:17.509Z,928.68
2019-03-17T03:37:18.211Z,928.63
2019-03-17T03:38:19.099Z,928.68
2019-03-17T03:39:20.128Z,928.67
2019-03-17T03:40:20.867Z,928.66
2019-03-17T03:41:21.755Z,928.64
2019-03-17T03:42:22.829Z,928.66
2019-03-17T03:43:23.702Z,928.68
2019-03-17T03:44:24.061Z,928.68
2019-03-17T03:45:24.745Z,928.7
2019-03-17T03:46:24.979Z,928.68
2019-03-17T03:47:25.881Z,928.67
2019-03-17T03:48:26.913Z,928.62
2019-03-17T03:49:28.076Z,928.66
2019-03-17T03:50:28.484Z,928.66
2019-03-17T03:51:29.378Z,928.66
2019-03-17T03:52:30.714Z,928.67
2019-03-17T03:53:31.639Z,928.65
2019-03-17T03:54:32.703Z,928.63
2019-03-17T03:55:33.309Z,928.59
2019-03-17T03:56:34.348Z,928.59
2019-03-17T03:57:35.496Z,928.58
2019-03-17T03:58:36.400Z,928.56
2019-03-17T03:59:37.002Z,928.57
2019-03-17T04:00:38.034Z,928.57
2019-03-17T04:01:39.066Z,928.53
2019-03-17T04:02:40.390Z,928.5
2019-03-17T04:03:40.742Z,928.47
2019-03-17T04:04:41.345Z,928.5
2019-03-17T04:05:42.397Z,928.47
2019-03-17T04:06:42.991Z,928.5
2019-03-17T04:07:43.831Z,928.46
2019-03-17T04:08:44.429Z,928.47
2019-03-17T04:09:45.019Z,928.46
2019-03-17T04:10:46.123Z,928.48
2019-03-17T04:11:46.671Z,928.42
2019-03-17T04:12:47.777Z,928.48
2019-03-17T04:13:48.372Z,928.47
2019-03-17T04:14:49.124Z,928.44
2019-03-17T04:15:49.724Z,928.4
2019-03-17T04:16:50.602Z,928.41
2019-03-17T04:17:51.926Z,928.41
2019-03-17T04:18:52.981Z,928.45
2019-03-17T04:19:53.581Z,928.42
2019-03-17T04:20:54.819Z,928.42
2019-03-17T04:21:55.609Z,928.42
2019-03-17T04:22:56.507Z,928.42
2019-03-17T04:23:57.881Z,928.37
2019-03-17T04:24:58.198Z,928.36
2019-03-17T04:25:58.692Z,928.4
2019-03-17T04:26:59.770Z,928.37
2019-03-17T04:28:00.887Z,928.38
2019-03-17T04:29:02.199Z,928.36
2019-03-17T04:30:02.513Z,928.39
2019-03-17T04:31:03.246Z,928.36
2019-03-17T04:32:04.275Z,928.33
2019-03-17T04:33:05.303Z,928.34
2019-03-17T04:34:05.617Z,928.34
2019-03-17T04:35:06.679Z,928.36
2019-03-17T04:36:07.094Z,928.38
2019-03-17T04:37:07.422Z,928.41
2019-03-17T04:38:08.348Z,928.42
2019-03-17T04:39:09.381Z,928.38
2019-03-17T04:40:10.150Z,928.33
2019-03-17T04:41:11.179Z,928.29
2019-03-17T04:42:11.649Z,928.28
2019-03-17T04:43:12.407Z,928.27
2019-03-17T04:44:22.924Z,928.26
2019-03-17T04:45:24.235Z,928.27
2019-03-17T04:46:24.704Z,928.26
2019-03-17T04:47:25.455Z,928.3
2019-03-17T04:48:25.650Z,928.29
2019-03-17T04:49:26.403Z,928.28
2019-03-17T04:50:27.210Z,928.35
2019-03-17T04:51:27.681Z,928.32
2019-03-17T04:52:28.150Z,928.31
2019-03-17T04:53:28.631Z,928.3
2019-03-17T04:54:28.839Z,928.25
2019-03-17T04:55:29.758Z,928.28
2019-03-17T04:56:32.981Z,928.32
2019-03-17T04:57:33.542Z,928.27
2019-03-17T04:58:34.301Z,928.31
2019-03-17T04:59:34.778Z,928.28
2019-03-17T05:00:36.141Z,928.3
2019-03-17T05:01:36.617Z,928.33
2019-03-17T05:02:36.880Z,928.37
2019-03-17T05:03:37.922Z,928.39
2019-03-17T05:04:38.118Z,928.44
2019-03-17T05:05:38.909Z,928.41
2019-03-17T05:06:52.813Z,928.4
2019-03-17T05:07:50.466Z,928.35
2019-03-17T05:08:50.944Z,928.38
2019-03-17T05:09:51.427Z,928.41
2019-03-17T05:10:52.174Z,928.46
2019-03-17T05:11:52.927Z,928.42
2019-03-17T05:12:53.403Z,928.47
2019-03-17T05:13:54.160Z,928.47
2019-03-17T05:14:55.200Z,928.5
2019-03-17T05:15:55.400Z,928.46
2019-03-17T05:16:55.882Z,928.48
2019-03-17T05:17:56.126Z,928.46
2019-03-17T05:18:56.897Z,928.5
2019-03-17T05:19:57.374Z,928.51
2019-03-17T05:20:57.575Z,928.5
2019-03-17T05:21:58.892Z,928.48
2019-03-17T05:22:59.646Z,928.52
2019-03-17T05:24:00.430Z,928.52
2019-03-17T05:25:00.908Z,928.51
2019-03-17T05:26:01.416Z,928.49
2019-03-17T05:27:02.178Z,928.48
2019-03-17T05:28:03.104Z,928.41
2019-03-17T05:29:03.861Z,928.42
2019-03-17T05:30:04.657Z,928.38
2019-03-17T05:31:05.696Z,928.39
2019-03-17T05:32:05.895Z,928.36
2019-03-17T05:33:06.113Z,928.39
2019-03-17T05:34:06.313Z,928.4
2019-03-17T05:35:07.343Z,928.4
2019-03-17T05:36:08.432Z,928.39
2019-03-17T05:37:09.298Z,928.44
2019-03-17T05:38:10.092Z,928.48
2019-03-17T05:39:10.498Z,928.44
2019-03-17T05:40:11.552Z,928.44
2019-03-17T05:41:12.337Z,928.41
2019-03-17T05:42:12.537Z,928.38
2019-03-17T05:43:13.018Z,928.33
2019-03-17T05:44:14.045Z,928.35
2019-03-17T05:45:14.249Z,928.3
2019-03-17T05:46:15.007Z,928.35
2019-03-17T05:47:15.776Z,928.29
2019-03-17T05:48:16.715Z,928.26
2019-03-17T05:49:17.777Z,928.25
2019-03-17T05:50:19.093Z,928.34
2019-03-17T05:51:19.850Z,928.31
2019-03-17T05:52:20.645Z,928.31
2019-03-17T05:53:21.681Z,928.29
2019-03-17T05:54:22.719Z,928.27
2019-03-17T05:55:24.102Z,928.25
2019-03-17T05:56:24.893Z,928.25
2019-03-17T05:57:25.649Z,928.28
2019-03-17T05:58:25.854Z,928.3
2019-03-17T05:59:26.333Z,928.27
2019-03-17T06:00:26.847Z,928.21
2019-03-17T06:01:27.601Z,928.23
2019-03-17T06:02:27.914Z,928.19
2019-03-17T06:03:28.670Z,928.14
2019-03-17T06:04:28.874Z,928.07
2019-03-17T06:05:29.647Z,928.14
2019-03-17T06:06:30.691Z,928.12
2019-03-17T06:07:31.170Z,928.07
2019-03-17T06:08:34.005Z,928.09
2019-03-17T06:09:34.392Z,928.08
2019-03-17T06:10:35.158Z,928.06
2019-03-17T06:11:35.941Z,928.05
2019-03-17T06:12:36.709Z,928.03
2019-03-17T06:13:37.202Z,928.13
2019-03-17T06:14:37.682Z,928.09
2019-03-17T06:15:38.506Z,928.09
2019-03-17T06:16:39.547Z,928.13
2019-03-17T06:17:40.356Z,928.06
2019-03-17T06:18:40.858Z,928.05
2019-03-17T06:19:41.340Z,928.08
2019-03-17T06:20:42.112Z,928.04
2019-03-17T06:21:42.590Z,928.04
2019-03-17T06:22:43.369Z,928.02
2019-03-17T06:23:44.128Z,928.06
2019-03-17T06:24:45.167Z,928.03
2019-03-17T06:25:46.137Z,928.09
2019-03-17T06:26:46.345Z,928.09
2019-03-17T06:27:46.854Z,928.11
2019-03-17T06:28:47.556Z,928.12
2019-03-17T06:29:48.318Z,928.14
2019-03-17T06:30:49.079Z,928.15
2019-03-17T06:31:49.555Z,928.17
2019-03-17T06:32:50.033Z,928.12
2019-03-17T06:33:51.064Z,928.17
2019-03-17T06:34:51.825Z,928.24
2019-03-17T06:35:52.305Z,928.23
2019-03-17T06:36:53.079Z,928.22
2019-03-17T06:37:53.853Z,928.17
2019-03-17T06:38:54.593Z,928.15
2019-03-17T06:39:55.626Z,928.16
2019-03-17T06:40:55.843Z,928.19
2019-03-17T06:41:56.048Z,928.21
2019-03-17T06:42:56.823Z,928.19
2019-03-17T06:43:57.598Z,928.22
2019-03-17T06:44:58.369Z,928.2
2019-03-17T06:45:59.129Z,928.21
2019-03-17T06:46:59.890Z,928.19
2019-03-17T06:48:00.657Z,928.23
2019-03-17T06:49:00.870Z,928.25
2019-03-17T06:50:01.910Z,928.29
2019-03-17T06:51:02.690Z,928.26
2019-03-17T06:52:03.451Z,928.29
2019-03-17T06:53:03.936Z,928.31
2019-03-17T06:54:04.703Z,928.25
2019-03-17T06:55:05.468Z,928.32
2019-03-17T06:56:06.561Z,928.28
2019-03-17T06:57:06.769Z,928.26
2019-03-17T06:58:07.093Z,928.25
2019-03-17T06:59:08.301Z,928.35
2019-03-17T07:00:09.111Z,928.35
2019-03-17T07:01:09.880Z,928.36
2019-03-17T07:02:10.158Z,928.41
2019-03-17T07:03:10.923Z,928.38
2019-03-17T07:04:11.405Z,928.42
2019-03-17T07:05:12.469Z,928.35
2019-03-17T07:06:12.678Z,928.35
2019-03-17T07:07:13.164Z,928.28
2019-03-17T07:08:14.218Z,928.25
2019-03-17T07:09:15.498Z,928.24
2019-03-17T07:10:16.817Z,928.24
2019-03-17T07:11:17.863Z,928.29
2019-03-17T07:12:18.668Z,928.34
2019-03-17T07:13:19.179Z,928.3
2019-03-17T07:14:20.500Z,928.3
2019-03-17T07:15:21.541Z,928.39
2019-03-17T07:16:22.039Z,928.37
2019-03-17T07:17:23.087Z,928.36
2019-03-17T07:18:23.590Z,928.44
2019-03-17T07:19:23.794Z,928.47
2019-03-17T07:20:24.284Z,928.47
2019-03-17T07:21:24.493Z,928.44
2019-03-17T07:22:25.267Z,928.42
2019-03-17T07:23:26.033Z,928.44
2019-03-17T07:24:26.800Z,928.46
2019-03-17T07:25:27.565Z,928.41
2019-03-17T07:26:27.784Z,928.41
2019-03-17T07:27:27.996Z,928.34
2019-03-17T07:28:28.484Z,928.35
2019-03-17T07:29:29.427Z,928.36
2019-03-17T07:30:29.750Z,928.45
2019-03-17T07:31:30.817Z,928.53
2019-03-17T07:32:31.034Z,928.53
2019-03-17T07:33:31.523Z,928.53
2019-03-17T07:34:32.093Z,928.49
2019-03-17T07:35:32.708Z,928.49
2019-03-17T07:36:33.201Z,928.51
2019-03-17T07:37:33.979Z,928.46
2019-03-17T07:38:34.470Z,928.58
2019-03-17T07:39:35.600Z,928.55
2019-03-17T07:40:36.930Z,928.58
2019-03-17T07:41:37.428Z,928.51
2019-03-17T07:42:37.641Z,928.51
2019-03-17T07:43:37.973Z,928.52
2019-03-17T07:44:38.462Z,928.56
2019-03-17T07:45:39.001Z,928.54
2019-03-17T07:46:39.492Z,928.55
2019-03-17T07:47:40.265Z,928.56
2019-03-17T07:48:40.531Z,928.53
2019-03-17T07:49:41.212Z,928.5
2019-03-17T07:50:41.981Z,928.47
2019-03-17T07:51:42.475Z,928.39
2019-03-17T07:52:43.240Z,928.47
2019-03-17T07:53:43.659Z,928.49
2019-03-17T07:54:43.884Z,928.45
2019-03-17T07:55:45.001Z,928.46
2019-03-17T07:56:45.215Z,928.43
2019-03-17T07:57:45.427Z,928.39
2019-03-17T07:58:46.214Z,928.38
2019-03-17T07:59:46.879Z,928.38
2019-03-17T08:00:47.150Z,928.29
2019-03-17T08:01:47.929Z,928.33
2019-03-17T08:02:48.599Z,928.36
2019-03-17T08:03:49.252Z,928.32
2019-03-17T08:04:49.680Z,928.37
2019-03-17T08:05:50.452Z,928.37
2019-03-17T08:06:51.504Z,928.39
2019-03-17T08:07:52.274Z,928.37
2019-03-17T08:08:52.488Z,928.36
2019-03-17T08:09:53.450Z,928.36
2019-03-17T08:10:53.946Z,928.3
2019-03-17T08:11:54.774Z,928.27
2019-03-17T08:12:55.823Z,928.36
2019-03-17T08:13:56.873Z,928.33
2019-03-17T08:14:58.221Z,928.36
2019-03-17T08:15:59.205Z,928.38
2019-03-17T08:16:59.979Z,928.4
2019-03-17T08:18:01.035Z,928.42
2019-03-17T08:19:01.841Z,928.45
2019-03-17T08:20:02.365Z,928.45
2019-03-17T08:21:02.863Z,928.48
2019-03-17T08:22:03.955Z,928.44
2019-03-17T08:23:04.729Z,928.43
2019-03-17T08:24:05.335Z,928.38
2019-03-17T08:25:06.397Z,928.46
2019-03-17T08:26:07.448Z,928.46
2019-03-17T08:27:08.225Z,928.47
2019-03-17T08:28:09.278Z,928.46
2019-03-17T08:29:09.493Z,928.48
2019-03-17T08:30:10.469Z,928.48
2019-03-17T08:31:10.966Z,928.48
2019-03-17T08:32:11.739Z,928.49
2019-03-17T08:33:12.244Z,928.5
2019-03-17T08:34:13.026Z,928.44
2019-03-17T08:35:13.554Z,928.46
2019-03-17T08:36:13.898Z,928.44
2019-03-17T08:37:14.675Z,928.39
2019-03-17T08:38:22.656Z,928.35
2019-03-17T08:38:25.586Z,928.33
2019-03-17T08:39:25.859Z,928.35
2019-03-17T08:40:26.730Z,928.34
2019-03-17T08:41:27.131Z,928.29
2019-03-17T08:42:27.742Z,928.3
2019-03-17T08:43:28.570Z,928.32
2019-03-17T08:44:28.937Z,928.35
2019-03-17T08:45:29.207Z,928.34
2019-03-17T08:46:29.702Z,928.35
2019-03-17T08:47:30.472Z,928.27
2019-03-17T08:48:30.974Z,928.26
2019-03-17T08:49:31.566Z,928.27
2019-03-17T08:50:32.339Z,928.31
2019-03-17T08:51:33.317Z,928.32
2019-03-17T08:52:34.818Z,928.28
2019-03-17T08:53:35.438Z,928.24
2019-03-17T08:53:46.153Z,928.25
2019-03-17T08:54:48.046Z,928.27
2019-03-17T08:54:57.060Z,928.26
2019-03-17T08:55:57.600Z,928.25
2019-03-17T08:56:58.372Z,928.31
2019-03-17T08:57:59.280Z,928.34
2019-03-17T08:58:59.806Z,928.41
2019-03-17T09:00:00.036Z,928.41
2019-03-17T09:01:01.224Z,928.4
2019-03-17T09:02:02.019Z,928.39
2019-03-17T09:03:02.522Z,928.41
2019-03-17T09:04:03.601Z,928.39
2019-03-17T09:05:03.927Z,928.37
2019-03-17T09:06:04.228Z,928.32
2019-03-17T09:07:05.007Z,928.36
2019-03-17T09:08:07.018Z,928.35
2019-03-17T09:08:16.176Z,928.32
2019-03-17T09:08:34.617Z,928.33
2019-03-17T09:08:37.128Z,928.35
2019-03-17T09:08:47.426Z,928.36
2019-03-17T09:08:57.490Z,928.35
2019-03-17T09:09:58.069Z,928.34
2019-03-17T09:10:58.971Z,928.35
2019-03-17T09:11:59.753Z,928.32
2019-03-17T09:13:00.538Z,928.34
2019-03-17T09:14:01.490Z,928.36
2019-03-17T09:15:01.994Z,928.35
2019-03-17T09:16:02.492Z,928.35
2019-03-17T09:17:14.766Z,928.33
2019-03-17T09:18:13.815Z,928.3
2019-03-17T09:19:14.951Z,928.25
2019-03-17T09:20:16.071Z,928.22
2019-03-17T09:21:16.856Z,928.16
2019-03-17T09:22:17.916Z,928.13
2019-03-17T09:23:18.163Z,928.18
2019-03-17T09:24:19.038Z,928.19
2019-03-17T09:25:20.476Z,928.09
2019-03-17T09:26:21.622Z,928.12
2019-03-17T09:27:22.405Z,928.11
2019-03-17T09:28:23.079Z,928.09
2019-03-17T09:29:23.318Z,928.1
2019-03-17T09:30:23.669Z,928.13
2019-03-17T09:31:24.447Z,928.12
2019-03-17T09:32:25.499Z,928.07
2019-03-17T09:33:26.004Z,928.07
2019-03-17T09:34:26.353Z,928.04
2019-03-17T09:35:27.148Z,928.03
2019-03-17T09:36:27.929Z,928.04
2019-03-17T09:37:28.804Z,928.03
2019-03-17T09:38:29.129Z,928.07
2019-03-17T09:39:29.432Z,928.07
2019-03-17T09:40:30.223Z,928.02
2019-03-17T09:41:32.797Z,928.03
2019-03-17T09:41:41.409Z,928.04
2019-03-17T09:42:42.803Z,927.98
2019-03-17T09:43:43.242Z,928.04
2019-03-17T09:44:43.570Z,928.02
2019-03-17T09:45:43.799Z,928.03
2019-03-17T09:46:44.304Z,927.98
2019-03-17T09:47:45.074Z,927.95
2019-03-17T09:48:46.184Z,927.97
2019-03-17T09:49:46.962Z,927.94
2019-03-17T09:50:47.745Z,927.96
2019-03-17T09:51:48.556Z,927.92
2019-03-17T09:52:50.975Z,927.91
2019-03-17T09:52:59.920Z,927.94
2019-03-17T09:53:10.932Z,927.91
2019-03-17T09:53:20.776Z,927.89
2019-03-17T09:53:30.995Z,927.91
2019-03-17T09:54:31.310Z,927.92
2019-03-17T09:55:32.431Z,927.93
2019-03-17T09:56:33.013Z,927.86
2019-03-17T09:57:33.785Z,927.87
2019-03-17T09:58:34.861Z,927.87
2019-03-17T09:59:35.908Z,927.8
2019-03-17T10:00:36.191Z,927.72
2019-03-17T10:01:36.527Z,927.73
2019-03-17T10:02:37.024Z,927.72
2019-03-17T10:03:37.528Z,927.67
2019-03-17T10:04:38.514Z,927.64
2019-03-17T10:05:39.021Z,927.58
2019-03-17T10:06:39.254Z,927.59
2019-03-17T10:07:39.749Z,927.59
2019-03-17T10:08:40.617Z,927.55
2019-03-17T10:09:41.115Z,927.56
2019-03-17T10:10:41.617Z,927.49
2019-03-17T10:11:42.755Z,927.54
2019-03-17T10:12:43.804Z,927.56
2019-03-17T10:13:44.166Z,927.6
2019-03-17T10:14:44.803Z,927.57
2019-03-17T10:15:45.310Z,927.58
2019-03-17T10:16:45.539Z,927.56
2019-03-17T10:17:46.326Z,927.55
2019-03-17T10:18:47.435Z,927.52
2019-03-17T10:19:47.934Z,927.54
2019-03-17T10:20:48.203Z,927.55
2019-03-17T10:21:48.708Z,927.54
2019-03-17T10:22:49.486Z,927.58
2019-03-17T10:23:49.718Z,927.52
2019-03-17T10:24:50.086Z,927.52
2019-03-17T10:25:50.321Z,927.48
2019-03-17T10:26:51.099Z,927.4
2019-03-17T10:27:51.598Z,927.41
2019-03-17T10:28:52.104Z,927.38
2019-03-17T10:29:53.160Z,927.38
2019-03-17T10:30:54.952Z,927.3
2019-03-17T10:31:56.341Z,927.27
2019-03-17T10:32:56.220Z,927.27
2019-03-17T10:33:57.009Z,927.22
2019-03-17T10:34:57.898Z,927.24
2019-03-17T10:35:58.396Z,927.18
2019-03-17T10:36:58.979Z,927.2
2019-03-17T10:37:59.833Z,927.16
2019-03-17T10:39:12.545Z,927.14
2019-03-17T10:40:11.284Z,927.14
2019-03-17T10:41:11.786Z,927.17
2019-03-17T10:42:12.563Z,927.17
2019-03-17T10:43:13.620Z,927.15
2019-03-17T10:44:14.474Z,927.08
2019-03-17T10:45:14.978Z,927.06
2019-03-17T10:46:16.047Z,927.07
2019-03-17T10:47:16.551Z,927.03
2019-03-17T10:48:17.419Z,927.07
2019-03-17T10:49:18.210Z,927.06
2019-03-17T10:50:19.128Z,927.03
2019-03-17T10:51:20.191Z,927.03
2019-03-17T10:52:20.968Z,927.01
2019-03-17T10:53:22.029Z,927.02
2019-03-17T10:54:23.078Z,927
2019-03-17T10:55:23.601Z,926.99
2019-03-17T10:56:24.376Z,927
2019-03-17T10:57:25.156Z,927.02
2019-03-17T10:58:25.941Z,926.97
2019-03-17T10:59:28.133Z,926.97
2019-03-17T11:00:29.252Z,926.97
2019-03-17T11:01:30.034Z,926.98
2019-03-17T11:02:31.113Z,926.95
2019-03-17T11:03:31.954Z,926.92
2019-03-17T11:04:33.003Z,926.87
2019-03-17T11:05:33.508Z,926.93
2019-03-17T11:06:34.030Z,926.92
2019-03-17T11:07:35.093Z,926.87
2019-03-17T11:08:35.618Z,926.88
2019-03-17T11:09:35.842Z,926.9
2019-03-17T11:10:36.477Z,926.88
2019-03-17T11:11:36.703Z,926.87
2019-03-17T11:12:37.483Z,926.82
2019-03-17T11:13:38.099Z,926.82
2019-03-17T11:14:38.599Z,926.81
2019-03-17T11:15:39.417Z,926.81
2019-03-17T11:16:39.918Z,926.82
2019-03-17T11:17:40.136Z,926.79
2019-03-17T11:18:40.942Z,926.78
2019-03-17T11:19:41.447Z,926.74
2019-03-17T11:20:42.366Z,926.76
2019-03-17T11:21:42.869Z,926.75
2019-03-17T11:22:43.648Z,926.73
2019-03-17T11:23:44.438Z,926.7
2019-03-17T11:24:45.225Z,926.68
2019-03-17T11:25:46.297Z,926.64
2019-03-17T11:26:47.078Z,926.66
2019-03-17T11:27:47.865Z,926.66
2019-03-17T11:28:48.923Z,926.67
2019-03-17T11:29:49.700Z,926.67
2019-03-17T11:30:49.949Z,926.67
2019-03-17T11:31:50.724Z,926.64
2019-03-17T11:32:51.014Z,926.65
2019-03-17T11:33:51.273Z,926.63
2019-03-17T11:34:52.061Z,926.61
2019-03-17T11:35:53.138Z,926.63
2019-03-17T11:36:53.909Z,926.59
2019-03-17T11:37:54.409Z,926.57
2019-03-17T11:38:55.218Z,926.58
2019-03-17T11:39:55.512Z,926.61
2019-03-17T11:40:56.474Z,926.55
2019-03-17T11:41:56.972Z,926.57
2019-03-17T11:42:57.480Z,926.48
2019-03-17T11:43:58.545Z,926.53
2019-03-17T11:44:59.104Z,926.46
2019-03-17T11:45:59.885Z,926.53
2019-03-17T11:47:00.695Z,926.5
2019-03-17T11:48:02.031Z,926.47
2019-03-17T11:49:02.820Z,926.48
2019-03-17T11:50:03.880Z,926.48
2019-03-17T11:51:04.851Z,926.46
2019-03-17T11:52:05.386Z,926.46
2019-03-17T11:53:06.181Z,926.44
2019-03-17T11:54:06.682Z,926.43
2019-03-17T11:55:07.245Z,926.41
2019-03-17T11:56:08.026Z,926.38
2019-03-17T11:57:08.812Z,926.36
2019-03-17T11:58:09.595Z,926.35
2019-03-17T11:59:10.367Z,926.35
2019-03-17T12:00:10.862Z,926.35
2019-03-17T12:01:11.178Z,926.33
2019-03-17T12:02:11.953Z,926.35
2019-03-17T12:02:26.676Z,926.31
2019-03-17T12:02:32.626Z,926.37
2019-03-17T12:03:33.508Z,926.32
2019-03-17T12:04:34.019Z,926.31
2019-03-17T12:05:35.077Z,926.33
2019-03-17T12:06:35.303Z,926.33
2019-03-17T12:07:36.091Z,926.34
2019-03-17T12:08:36.871Z,926.29
2019-03-17T12:09:50.183Z,926.33
2019-03-17T12:10:49.013Z,926.26
2019-03-17T12:11:49.793Z,926.32
2019-03-17T12:12:50.944Z,926.29
2019-03-17T12:13:51.473Z,926.26
2019-03-17T12:14:53.531Z,926.25
2019-03-17T12:15:53.762Z,926.2
2019-03-17T12:16:53.991Z,926.17
2019-03-17T12:17:54.794Z,926.14
2019-03-17T12:18:56.130Z,926.11
2019-03-17T12:19:57.183Z,926.03
2019-03-17T12:20:58.473Z,926.02
2019-03-17T12:22:09.646Z,926.1
2019-03-17T12:23:10.227Z,926.09
2019-03-17T12:24:11.008Z,926.14
2019-03-17T12:25:12.327Z,926.07